sensor_id;sensor_type;location;lat;lon;timestamp;P1;durP1;ratioP1;P2;durP2;ratioP2
75810;SDS011;64449;50.016;19.954;2023-12-28T00:01:08;35.00;;;14.50;;
75810;SDS011;64449;50.016;19.954;2023-12-28T00:05:58;27.60;;;13.40;;
75810;SDS011;64449;50.016;19.954;2023-12-28T00:08:24;30.90;;;14.40;;
75810;SDS011;64449;50.016;19.954;2023-12-28T00:10:49;26.60;;;14.10;;
75810;SDS011;64449;50.016;19.954;2023-12-28T00:13:15;33.20;;;15.80;;
75810;SDS011;64449;50.016;19.954;2023-12-28T00:18:06;29.00;;;14.40;;
75810;SDS011;64449;50.016;19.954;2023-12-28T00:20:32;32.10;;;16.50;;
75810;SDS011;64449;50.016;19.954;2023-12-28T00:25:23;37.90;;;17.40;;
75810;SDS011;64449;50.016;19.954;2023-12-28T00:27:48;30.00;;;16.30;;
75810;SDS011;64449;50.016;19.954;2023-12-28T00:32:42;30.10;;;15.30;;
75810;SDS011;64449;50.016;19.954;2023-12-28T00:35:11;36.10;;;17.70;;
75810;SDS011;64449;50.016;19.954;2023-12-28T00:37:36;38.60;;;18.80;;
75810;SDS011;64449;50.016;19.954;2023-12-28T00:40:02;36.70;;;18.30;;
75810;SDS011;64449;50.016;19.954;2023-12-28T00:42:28;37.80;;;17.70;;
75810;SDS011;64449;50.016;19.954;2023-12-28T00:44:53;41.10;;;17.70;;
75810;SDS011;64449;50.016;19.954;2023-12-28T00:47:19;40.90;;;16.90;;
75810;SDS011;64449;50.016;19.954;2023-12-28T00:52:09;32.50;;;15.30;;
75810;SDS011;64449;50.016;19.954;2023-12-28T00:54:38;32.10;;;15.50;;
75810;SDS011;64449;50.016;19.954;2023-12-28T00:57:04;30.40;;;16.10;;
75810;SDS011;64449;50.016;19.954;2023-12-28T00:59:30;35.30;;;16.10;;
75810;SDS011;64449;50.016;19.954;2023-12-28T01:01:56;23.00;;;11.40;;
75810;SDS011;64449;50.016;19.954;2023-12-28T01:04:21;37.60;;;16.10;;
75810;SDS011;64449;50.016;19.954;2023-12-28T01:06:49;34.30;;;16.40;;
75810;SDS011;64449;50.016;19.954;2023-12-28T01:11:40;33.90;;;15.10;;
75810;SDS011;64449;50.016;19.954;2023-12-28T01:14:06;33.70;;;17.60;;
75810;SDS011;64449;50.016;19.954;2023-12-28T01:16:32;36.20;;;17.90;;
75810;SDS011;64449;50.016;19.954;2023-12-28T01:18:57;37.10;;;18.10;;
75810;SDS011;64449;50.016;19.954;2023-12-28T01:21:23;41.70;;;19.80;;
75810;SDS011;64449;50.016;19.954;2023-12-28T01:23:50;40.10;;;19.10;;
75810;SDS011;64449;50.016;19.954;2023-12-28T01:26:16;40.60;;;19.80;;
75810;SDS011;64449;50.016;19.954;2023-12-28T01:28:42;34.90;;;17.00;;
75810;SDS011;64449;50.016;19.954;2023-12-28T01:31:08;36.40;;;18.10;;
75810;SDS011;64449;50.016;19.954;2023-12-28T01:33:34;34.50;;;17.30;;
75810;SDS011;64449;50.016;19.954;2023-12-28T01:36:01;32.20;;;17.10;;
75810;SDS011;64449;50.016;19.954;2023-12-28T01:38:26;34.70;;;15.50;;
75810;SDS011;64449;50.016;19.954;2023-12-28T01:40:52;33.10;;;15.70;;
75810;SDS011;64449;50.016;19.954;2023-12-28T01:45:43;29.90;;;13.80;;
75810;SDS011;64449;50.016;19.954;2023-12-28T01:48:10;33.70;;;15.20;;
75810;SDS011;64449;50.016;19.954;2023-12-28T01:50:36;28.50;;;14.00;;
75810;SDS011;64449;50.016;19.954;2023-12-28T01:53:01;37.00;;;16.60;;
75810;SDS011;64449;50.016;19.954;2023-12-28T01:55:28;32.00;;;15.00;;
75810;SDS011;64449;50.016;19.954;2023-12-28T01:57:55;32.50;;;15.50;;
75810;SDS011;64449;50.016;19.954;2023-12-28T02:00:22;29.80;;;13.80;;
75810;SDS011;64449;50.016;19.954;2023-12-28T02:02:48;34.50;;;15.60;;
75810;SDS011;64449;50.016;19.954;2023-12-28T02:05:13;32.60;;;16.00;;
75810;SDS011;64449;50.016;19.954;2023-12-28T02:07:40;30.90;;;14.00;;
75810;SDS011;64449;50.016;19.954;2023-12-28T02:10:06;26.30;;;12.90;;
75810;SDS011;64449;50.016;19.954;2023-12-28T02:12:32;33.10;;;14.10;;
75810;SDS011;64449;50.016;19.954;2023-12-28T02:14:58;31.20;;;14.70;;
75810;SDS011;64449;50.016;19.954;2023-12-28T02:17:30;33.10;;;15.50;;
75810;SDS011;64449;50.016;19.954;2023-12-28T02:20:01;30.40;;;10.80;;
75810;SDS011;64449;50.016;19.954;2023-12-28T02:22:31;28.40;;;13.20;;
75810;SDS011;64449;50.016;19.954;2023-12-28T02:25:10;31.40;;;14.30;;
75810;SDS011;64449;50.016;19.954;2023-12-28T02:27:40;31.70;;;13.90;;
75810;SDS011;64449;50.016;19.954;2023-12-28T02:30:07;31.20;;;14.60;;
75810;SDS011;64449;50.016;19.954;2023-12-28T02:35:06;29.50;;;13.00;;
75810;SDS011;64449;50.016;19.954;2023-12-28T02:37:44;30.20;;;13.40;;
75810;SDS011;64449;50.016;19.954;2023-12-28T02:40:15;25.90;;;12.70;;
75810;SDS011;64449;50.016;19.954;2023-12-28T02:42:42;29.60;;;13.20;;
75810;SDS011;64449;50.016;19.954;2023-12-28T02:45:07;30.10;;;13.80;;
75810;SDS011;64449;50.016;19.954;2023-12-28T02:47:34;29.30;;;14.40;;
75810;SDS011;64449;50.016;19.954;2023-12-28T02:49:59;32.50;;;14.20;;
75810;SDS011;64449;50.016;19.954;2023-12-28T02:52:24;31.30;;;14.50;;
75810;SDS011;64449;50.016;19.954;2023-12-28T02:54:50;36.60;;;16.20;;
75810;SDS011;64449;50.016;19.954;2023-12-28T02:57:15;39.30;;;19.60;;
75810;SDS011;64449;50.016;19.954;2023-12-28T02:59:44;42.50;;;16.80;;
75810;SDS011;64449;50.016;19.954;2023-12-28T03:02:12;36.50;;;17.30;;
75810;SDS011;64449;50.016;19.954;2023-12-28T03:07:04;33.90;;;14.70;;
75810;SDS011;64449;50.016;19.954;2023-12-28T03:09:30;35.90;;;16.50;;
75810;SDS011;64449;50.016;19.954;2023-12-28T03:11:55;36.30;;;17.20;;
75810;SDS011;64449;50.016;19.954;2023-12-28T03:14:21;34.70;;;17.50;;
75810;SDS011;64449;50.016;19.954;2023-12-28T03:16:47;37.30;;;17.90;;
75810;SDS011;64449;50.016;19.954;2023-12-28T03:21:40;34.90;;;15.80;;
75810;SDS011;64449;50.016;19.954;2023-12-28T03:24:07;35.00;;;17.30;;
75810;SDS011;64449;50.016;19.954;2023-12-28T03:29:00;40.30;;;16.20;;
75810;SDS011;64449;50.016;19.954;2023-12-28T03:31:25;38.10;;;17.90;;
75810;SDS011;64449;50.016;19.954;2023-12-28T03:33:50;37.80;;;17.80;;
75810;SDS011;64449;50.016;19.954;2023-12-28T03:36:19;39.70;;;18.90;;
75810;SDS011;64449;50.016;19.954;2023-12-28T03:38:45;39.00;;;19.30;;
75810;SDS011;64449;50.016;19.954;2023-12-28T03:41:20;33.30;;;17.40;;
75810;SDS011;64449;50.016;19.954;2023-12-28T03:43:46;41.00;;;18.40;;
75810;SDS011;64449;50.016;19.954;2023-12-28T03:46:12;39.30;;;18.30;;
75810;SDS011;64449;50.016;19.954;2023-12-28T03:48:37;29.50;;;14.60;;
75810;SDS011;64449;50.016;19.954;2023-12-28T03:51:03;33.10;;;17.10;;
75810;SDS011;64449;50.016;19.954;2023-12-28T03:53:29;34.00;;;16.10;;
75810;SDS011;64449;50.016;19.954;2023-12-28T03:55:58;30.70;;;16.10;;
75810;SDS011;64449;50.016;19.954;2023-12-28T03:58:24;33.30;;;16.90;;
75810;SDS011;64449;50.016;19.954;2023-12-28T04:00:49;30.30;;;16.60;;
75810;SDS011;64449;50.016;19.954;2023-12-28T04:03:14;41.30;;;18.40;;
75810;SDS011;64449;50.016;19.954;2023-12-28T04:05:40;39.10;;;18.60;;
75810;SDS011;64449;50.016;19.954;2023-12-28T04:08:06;37.40;;;17.30;;
75810;SDS011;64449;50.016;19.954;2023-12-28T04:10:33;35.00;;;19.20;;
75810;SDS011;64449;50.016;19.954;2023-12-28T04:12:58;39.70;;;18.30;;
75810;SDS011;64449;50.016;19.954;2023-12-28T04:15:28;33.50;;;18.10;;
75810;SDS011;64449;50.016;19.954;2023-12-28T04:17:53;35.20;;;18.90;;
75810;SDS011;64449;50.016;19.954;2023-12-28T04:20:19;33.70;;;17.00;;
75810;SDS011;64449;50.016;19.954;2023-12-28T04:22:44;32.60;;;17.50;;
75810;SDS011;64449;50.016;19.954;2023-12-28T04:25:10;34.90;;;18.20;;
75810;SDS011;64449;50.016;19.954;2023-12-28T04:30:01;32.20;;;15.30;;
75810;SDS011;64449;50.016;19.954;2023-12-28T04:32:27;38.80;;;18.40;;
75810;SDS011;64449;50.016;19.954;2023-12-28T04:34:53;34.40;;;16.90;;
75810;SDS011;64449;50.016;19.954;2023-12-28T04:37:21;38.40;;;17.70;;
75810;SDS011;64449;50.016;19.954;2023-12-28T04:39:46;33.70;;;17.50;;
75810;SDS011;64449;50.016;19.954;2023-12-28T04:42:12;38.40;;;18.60;;
75810;SDS011;64449;50.016;19.954;2023-12-28T04:44:37;35.20;;;17.90;;
75810;SDS011;64449;50.016;19.954;2023-12-28T04:47:04;39.60;;;17.40;;
75810;SDS011;64449;50.016;19.954;2023-12-28T04:49:29;39.60;;;19.90;;
75810;SDS011;64449;50.016;19.954;2023-12-28T04:51:55;33.20;;;17.30;;
75810;SDS011;64449;50.016;19.954;2023-12-28T04:56:46;33.30;;;16.50;;
75810;SDS011;64449;50.016;19.954;2023-12-28T05:01:40;28.60;;;14.10;;
75810;SDS011;64449;50.016;19.954;2023-12-28T05:04:09;35.00;;;18.10;;
75810;SDS011;64449;50.016;19.954;2023-12-28T05:06:35;40.10;;;18.40;;
75810;SDS011;64449;50.016;19.954;2023-12-28T05:09:00;36.30;;;17.80;;
75810;SDS011;64449;50.016;19.954;2023-12-28T05:11:26;34.40;;;17.90;;
75810;SDS011;64449;50.016;19.954;2023-12-28T05:13:52;39.80;;;18.40;;
75810;SDS011;64449;50.016;19.954;2023-12-28T05:18:42;31.90;;;14.90;;
75810;SDS011;64449;50.016;19.954;2023-12-28T05:23:33;32.50;;;13.70;;
75810;SDS011;64449;50.016;19.954;2023-12-28T05:25:58;28.20;;;15.10;;
75810;SDS011;64449;50.016;19.954;2023-12-28T05:28:24;30.60;;;14.70;;
75810;SDS011;64449;50.016;19.954;2023-12-28T05:30:49;30.80;;;15.50;;
75810;SDS011;64449;50.016;19.954;2023-12-28T05:33:15;33.20;;;17.00;;
75810;SDS011;64449;50.016;19.954;2023-12-28T05:35:40;32.20;;;16.90;;
75810;SDS011;64449;50.016;19.954;2023-12-28T05:38:05;35.30;;;15.30;;
75810;SDS011;64449;50.016;19.954;2023-12-28T05:40:31;32.50;;;14.00;;
75810;SDS011;64449;50.016;19.954;2023-12-28T05:42:56;32.90;;;16.30;;
75810;SDS011;64449;50.016;19.954;2023-12-28T05:45:21;31.00;;;14.40;;
75810;SDS011;64449;50.016;19.954;2023-12-28T05:47:47;37.70;;;16.80;;
75810;SDS011;64449;50.016;19.954;2023-12-28T05:52:38;30.10;;;12.80;;
75810;SDS011;64449;50.016;19.954;2023-12-28T05:55:03;27.80;;;14.20;;
75810;SDS011;64449;50.016;19.954;2023-12-28T05:57:29;31.80;;;13.60;;
75810;SDS011;64449;50.016;19.954;2023-12-28T05:59:56;31.50;;;14.10;;
75810;SDS011;64449;50.016;19.954;2023-12-28T06:02:22;30.30;;;11.80;;
75810;SDS011;64449;50.016;19.954;2023-12-28T06:04:47;29.80;;;12.40;;
75810;SDS011;64449;50.016;19.954;2023-12-28T06:07:13;25.70;;;13.10;;
75810;SDS011;64449;50.016;19.954;2023-12-28T06:09:38;25.80;;;12.00;;
75810;SDS011;64449;50.016;19.954;2023-12-28T06:12:04;26.30;;;12.00;;
75810;SDS011;64449;50.016;19.954;2023-12-28T06:14:30;24.90;;;12.20;;
75810;SDS011;64449;50.016;19.954;2023-12-28T06:16:55;29.10;;;14.60;;
75810;SDS011;64449;50.016;19.954;2023-12-28T06:19:21;27.90;;;12.90;;
75810;SDS011;64449;50.016;19.954;2023-12-28T06:21:47;28.80;;;12.80;;
75810;SDS011;64449;50.016;19.954;2023-12-28T06:24:13;38.90;;;16.80;;
75810;SDS011;64449;50.016;19.954;2023-12-28T06:26:43;31.50;;;14.50;;
75810;SDS011;64449;50.016;19.954;2023-12-28T06:29:09;31.80;;;13.40;;
75810;SDS011;64449;50.016;19.954;2023-12-28T06:31:38;29.10;;;13.20;;
75810;SDS011;64449;50.016;19.954;2023-12-28T06:34:03;26.60;;;13.80;;
75810;SDS011;64449;50.016;19.954;2023-12-28T06:36:30;29.10;;;14.10;;
75810;SDS011;64449;50.016;19.954;2023-12-28T06:38:56;17.50;;;9.00;;
75810;SDS011;64449;50.016;19.954;2023-12-28T06:41:21;24.60;;;11.70;;
75810;SDS011;64449;50.016;19.954;2023-12-28T06:43:47;26.80;;;13.00;;
75810;SDS011;64449;50.016;19.954;2023-12-28T06:46:12;24.00;;;10.60;;
75810;SDS011;64449;50.016;19.954;2023-12-28T06:48:38;38.00;;;17.60;;
75810;SDS011;64449;50.016;19.954;2023-12-28T06:51:05;28.10;;;14.00;;
75810;SDS011;64449;50.016;19.954;2023-12-28T06:53:31;30.50;;;14.10;;
75810;SDS011;64449;50.016;19.954;2023-12-28T06:58:22;25.30;;;11.60;;
75810;SDS011;64449;50.016;19.954;2023-12-28T07:00:47;27.60;;;11.90;;
75810;SDS011;64449;50.016;19.954;2023-12-28T07:03:13;27.30;;;12.40;;
75810;SDS011;64449;50.016;19.954;2023-12-28T07:05:38;28.00;;;12.90;;
75810;SDS011;64449;50.016;19.954;2023-12-28T07:08:04;32.20;;;14.90;;
75810;SDS011;64449;50.016;19.954;2023-12-28T07:10:30;28.10;;;12.10;;
75810;SDS011;64449;50.016;19.954;2023-12-28T07:12:55;25.40;;;11.30;;
75810;SDS011;64449;50.016;19.954;2023-12-28T07:15:20;22.30;;;10.90;;
75810;SDS011;64449;50.016;19.954;2023-12-28T07:17:46;24.30;;;10.10;;
75810;SDS011;64449;50.016;19.954;2023-12-28T07:20:11;20.40;;;9.70;;
75810;SDS011;64449;50.016;19.954;2023-12-28T07:22:37;24.00;;;10.90;;
75810;SDS011;64449;50.016;19.954;2023-12-28T07:25:06;22.20;;;11.10;;
75810;SDS011;64449;50.016;19.954;2023-12-28T07:27:32;23.10;;;10.80;;
75810;SDS011;64449;50.016;19.954;2023-12-28T07:29:58;21.60;;;10.90;;
75810;SDS011;64449;50.016;19.954;2023-12-28T07:34:51;23.00;;;11.00;;
75810;SDS011;64449;50.016;19.954;2023-12-28T07:37:19;22.10;;;13.20;;
75810;SDS011;64449;50.016;19.954;2023-12-28T07:39:45;24.10;;;12.80;;
75810;SDS011;64449;50.016;19.954;2023-12-28T07:42:11;24.70;;;12.10;;
75810;SDS011;64449;50.016;19.954;2023-12-28T07:44:37;27.20;;;13.80;;
75810;SDS011;64449;50.016;19.954;2023-12-28T07:49:28;24.10;;;11.80;;
75810;SDS011;64449;50.016;19.954;2023-12-28T07:51:55;28.10;;;13.50;;
75810;SDS011;64449;50.016;19.954;2023-12-28T07:54:21;25.90;;;12.20;;
75810;SDS011;64449;50.016;19.954;2023-12-28T07:56:46;26.40;;;14.10;;
75810;SDS011;64449;50.016;19.954;2023-12-28T07:59:11;27.80;;;12.50;;
75810;SDS011;64449;50.016;19.954;2023-12-28T08:01:37;28.00;;;14.70;;
75810;SDS011;64449;50.016;19.954;2023-12-28T08:06:28;29.20;;;13.30;;
75810;SDS011;64449;50.016;19.954;2023-12-28T08:08:57;25.50;;;12.60;;
75810;SDS011;64449;50.016;19.954;2023-12-28T08:11:24;24.10;;;12.60;;
75810;SDS011;64449;50.016;19.954;2023-12-28T08:13:49;29.50;;;13.80;;
75810;SDS011;64449;50.016;19.954;2023-12-28T08:18:40;23.70;;;11.70;;
75810;SDS011;64449;50.016;19.954;2023-12-28T08:23:31;23.10;;;11.10;;
75810;SDS011;64449;50.016;19.954;2023-12-28T08:25:56;23.50;;;11.90;;
75810;SDS011;64449;50.016;19.954;2023-12-28T08:28:21;31.80;;;14.50;;
75810;SDS011;64449;50.016;19.954;2023-12-28T08:30:48;27.70;;;13.20;;
75810;SDS011;64449;50.016;19.954;2023-12-28T08:33:14;25.50;;;13.30;;
75810;SDS011;64449;50.016;19.954;2023-12-28T08:35:39;24.30;;;12.90;;
75810;SDS011;64449;50.016;19.954;2023-12-28T08:38:05;26.60;;;14.20;;
75810;SDS011;64449;50.016;19.954;2023-12-28T08:40:31;27.30;;;13.90;;
75810;SDS011;64449;50.016;19.954;2023-12-28T08:42:57;22.40;;;13.20;;
75810;SDS011;64449;50.016;19.954;2023-12-28T08:45:22;23.50;;;12.90;;
75810;SDS011;64449;50.016;19.954;2023-12-28T08:47:47;23.40;;;12.00;;
75810;SDS011;64449;50.016;19.954;2023-12-28T08:50:13;25.00;;;13.40;;
75810;SDS011;64449;50.016;19.954;2023-12-28T08:52:38;26.20;;;12.70;;
75810;SDS011;64449;50.016;19.954;2023-12-28T08:55:04;22.30;;;12.80;;
75810;SDS011;64449;50.016;19.954;2023-12-28T08:57:30;23.90;;;13.60;;
75810;SDS011;64449;50.016;19.954;2023-12-28T08:59:56;23.90;;;13.40;;
75810;SDS011;64449;50.016;19.954;2023-12-28T09:02:22;24.50;;;13.90;;
75810;SDS011;64449;50.016;19.954;2023-12-28T09:04:48;24.80;;;13.90;;
75810;SDS011;64449;50.016;19.954;2023-12-28T09:07:13;28.30;;;15.40;;
75810;SDS011;64449;50.016;19.954;2023-12-28T09:09:39;27.80;;;14.20;;
75810;SDS011;64449;50.016;19.954;2023-12-28T09:12:04;30.40;;;14.40;;
75810;SDS011;64449;50.016;19.954;2023-12-28T09:14:30;26.50;;;15.00;;
75810;SDS011;64449;50.016;19.954;2023-12-28T09:16:55;27.00;;;14.60;;
75810;SDS011;64449;50.016;19.954;2023-12-28T09:19:22;25.50;;;13.20;;
75810;SDS011;64449;50.016;19.954;2023-12-28T09:21:47;23.80;;;13.70;;
75810;SDS011;64449;50.016;19.954;2023-12-28T09:24:13;22.80;;;13.40;;
75810;SDS011;64449;50.016;19.954;2023-12-28T09:26:40;23.60;;;13.30;;
75810;SDS011;64449;50.016;19.954;2023-12-28T09:29:06;21.00;;;12.80;;
75810;SDS011;64449;50.016;19.954;2023-12-28T09:31:31;25.60;;;14.60;;
75810;SDS011;64449;50.016;19.954;2023-12-28T09:33:57;28.20;;;15.70;;
75810;SDS011;64449;50.016;19.954;2023-12-28T09:36:22;24.80;;;13.90;;
75810;SDS011;64449;50.016;19.954;2023-12-28T09:38:48;24.10;;;12.50;;
75810;SDS011;64449;50.016;19.954;2023-12-28T09:41:14;27.60;;;13.30;;
75810;SDS011;64449;50.016;19.954;2023-12-28T09:43:41;22.20;;;13.50;;
75810;SDS011;64449;50.016;19.954;2023-12-28T09:46:15;24.30;;;13.00;;
75810;SDS011;64449;50.016;19.954;2023-12-28T09:48:41;26.60;;;13.50;;
75810;SDS011;64449;50.016;19.954;2023-12-28T09:51:07;25.40;;;12.90;;
75810;SDS011;64449;50.016;19.954;2023-12-28T09:53:35;28.20;;;15.20;;
75810;SDS011;64449;50.016;19.954;2023-12-28T09:56:00;24.20;;;14.70;;
75810;SDS011;64449;50.016;19.954;2023-12-28T09:58:28;23.30;;;14.30;;
75810;SDS011;64449;50.016;19.954;2023-12-28T10:00:56;23.50;;;14.70;;
75810;SDS011;64449;50.016;19.954;2023-12-28T10:03:21;25.30;;;14.30;;
75810;SDS011;64449;50.016;19.954;2023-12-28T10:05:47;22.60;;;13.40;;
75810;SDS011;64449;50.016;19.954;2023-12-28T10:08:15;24.90;;;14.60;;
75810;SDS011;64449;50.016;19.954;2023-12-28T10:10:42;21.40;;;13.50;;
75810;SDS011;64449;50.016;19.954;2023-12-28T10:13:08;22.90;;;13.40;;
75810;SDS011;64449;50.016;19.954;2023-12-28T10:15:35;22.70;;;13.30;;
75810;SDS011;64449;50.016;19.954;2023-12-28T10:18:01;22.50;;;13.10;;
75810;SDS011;64449;50.016;19.954;2023-12-28T10:20:28;21.10;;;13.90;;
75810;SDS011;64449;50.016;19.954;2023-12-28T10:22:53;21.20;;;11.50;;
75810;SDS011;64449;50.016;19.954;2023-12-28T10:25:19;20.70;;;11.80;;
75810;SDS011;64449;50.016;19.954;2023-12-28T10:27:44;21.40;;;11.80;;
75810;SDS011;64449;50.016;19.954;2023-12-28T10:30:10;17.10;;;10.80;;
75810;SDS011;64449;50.016;19.954;2023-12-28T10:32:42;19.40;;;10.30;;
75810;SDS011;64449;50.016;19.954;2023-12-28T10:35:07;18.50;;;10.40;;
75810;SDS011;64449;50.016;19.954;2023-12-28T10:37:33;21.90;;;12.80;;
75810;SDS011;64449;50.016;19.954;2023-12-28T10:40:01;22.90;;;13.20;;
75810;SDS011;64449;50.016;19.954;2023-12-28T10:42:32;19.10;;;12.80;;
75810;SDS011;64449;50.016;19.954;2023-12-28T10:45:01;21.00;;;11.20;;
75810;SDS011;64449;50.016;19.954;2023-12-28T10:47:33;22.90;;;12.40;;
75810;SDS011;64449;50.016;19.954;2023-12-28T10:50:03;21.60;;;12.90;;
75810;SDS011;64449;50.016;19.954;2023-12-28T10:52:30;23.90;;;14.30;;
75810;SDS011;64449;50.016;19.954;2023-12-28T10:55:07;23.80;;;15.20;;
75810;SDS011;64449;50.016;19.954;2023-12-28T10:57:39;24.00;;;15.00;;
75810;SDS011;64449;50.016;19.954;2023-12-28T11:00:09;25.50;;;14.80;;
75810;SDS011;64449;50.016;19.954;2023-12-28T11:02:39;24.60;;;14.70;;
75810;SDS011;64449;50.016;19.954;2023-12-28T11:07:35;27.30;;;16.00;;
75810;SDS011;64449;50.016;19.954;2023-12-28T11:10:03;27.00;;;16.00;;
75810;SDS011;64449;50.016;19.954;2023-12-28T11:12:31;27.70;;;16.10;;
75810;SDS011;64449;50.016;19.954;2023-12-28T11:14:57;28.10;;;15.70;;
75810;SDS011;64449;50.016;19.954;2023-12-28T11:17:24;27.10;;;15.10;;
75810;SDS011;64449;50.016;19.954;2023-12-28T11:19:51;27.20;;;17.00;;
75810;SDS011;64449;50.016;19.954;2023-12-28T11:22:19;26.70;;;16.10;;
75810;SDS011;64449;50.016;19.954;2023-12-28T11:24:48;24.90;;;16.20;;
75810;SDS011;64449;50.016;19.954;2023-12-28T11:27:14;25.80;;;15.40;;
75810;SDS011;64449;50.016;19.954;2023-12-28T11:29:41;28.50;;;16.90;;
75810;SDS011;64449;50.016;19.954;2023-12-28T11:32:07;26.20;;;17.10;;
75810;SDS011;64449;50.016;19.954;2023-12-28T11:34:33;28.20;;;15.40;;
75810;SDS011;64449;50.016;19.954;2023-12-28T11:37:08;27.70;;;16.10;;
75810;SDS011;64449;50.016;19.954;2023-12-28T11:39:37;27.80;;;16.00;;
75810;SDS011;64449;50.016;19.954;2023-12-28T11:42:08;30.60;;;16.10;;
75810;SDS011;64449;50.016;19.954;2023-12-28T11:44:38;28.10;;;17.00;;
75810;SDS011;64449;50.016;19.954;2023-12-28T11:49:42;21.30;;;14.60;;
75810;SDS011;64449;50.016;19.954;2023-12-28T11:52:11;22.50;;;13.50;;
75810;SDS011;64449;50.016;19.954;2023-12-28T11:54:50;22.30;;;13.90;;
75810;SDS011;64449;50.016;19.954;2023-12-28T11:57:16;23.50;;;15.20;;
75810;SDS011;64449;50.016;19.954;2023-12-28T11:59:41;20.60;;;13.00;;
75810;SDS011;64449;50.016;19.954;2023-12-28T12:02:07;20.00;;;13.00;;
75810;SDS011;64449;50.016;19.954;2023-12-28T12:04:33;24.70;;;13.80;;
75810;SDS011;64449;50.016;19.954;2023-12-28T12:07:01;20.80;;;12.60;;
75810;SDS011;64449;50.016;19.954;2023-12-28T12:09:28;21.60;;;13.90;;
75810;SDS011;64449;50.016;19.954;2023-12-28T12:11:53;21.80;;;13.00;;
75810;SDS011;64449;50.016;19.954;2023-12-28T12:14:19;23.30;;;13.20;;
75810;SDS011;64449;50.016;19.954;2023-12-28T12:16:45;20.30;;;12.30;;
75810;SDS011;64449;50.016;19.954;2023-12-28T12:19:11;20.40;;;11.90;;
75810;SDS011;64449;50.016;19.954;2023-12-28T12:21:37;20.60;;;12.20;;
75810;SDS011;64449;50.016;19.954;2023-12-28T12:24:03;19.00;;;12.30;;
75810;SDS011;64449;50.016;19.954;2023-12-28T12:26:30;20.20;;;12.20;;
75810;SDS011;64449;50.016;19.954;2023-12-28T12:28:56;20.50;;;11.50;;
75810;SDS011;64449;50.016;19.954;2023-12-28T12:31:22;27.80;;;13.20;;
75810;SDS011;64449;50.016;19.954;2023-12-28T12:33:48;24.00;;;12.90;;
75810;SDS011;64449;50.016;19.954;2023-12-28T12:36:15;21.00;;;12.80;;
75810;SDS011;64449;50.016;19.954;2023-12-28T12:38:40;19.20;;;12.20;;
75810;SDS011;64449;50.016;19.954;2023-12-28T12:41:06;18.40;;;11.30;;
75810;SDS011;64449;50.016;19.954;2023-12-28T12:43:32;20.90;;;11.70;;
75810;SDS011;64449;50.016;19.954;2023-12-28T12:45:58;17.00;;;11.30;;
75810;SDS011;64449;50.016;19.954;2023-12-28T12:48:25;16.50;;;10.50;;
75810;SDS011;64449;50.016;19.954;2023-12-28T12:50:51;20.10;;;9.90;;
75810;SDS011;64449;50.016;19.954;2023-12-28T12:53:16;18.00;;;11.30;;
75810;SDS011;64449;50.016;19.954;2023-12-28T12:55:41;16.60;;;10.40;;
75810;SDS011;64449;50.016;19.954;2023-12-28T12:58:12;17.10;;;10.30;;
75810;SDS011;64449;50.016;19.954;2023-12-28T13:00:41;16.80;;;9.20;;
75810;SDS011;64449;50.016;19.954;2023-12-28T13:03:09;18.10;;;9.60;;
75810;SDS011;64449;50.016;19.954;2023-12-28T13:05:35;18.80;;;10.70;;
75810;SDS011;64449;50.016;19.954;2023-12-28T13:08:03;15.80;;;9.60;;
75810;SDS011;64449;50.016;19.954;2023-12-28T13:10:30;15.30;;;9.00;;
75810;SDS011;64449;50.016;19.954;2023-12-28T13:12:56;16.50;;;10.40;;
75810;SDS011;64449;50.016;19.954;2023-12-28T13:15:21;19.60;;;10.70;;
75810;SDS011;64449;50.016;19.954;2023-12-28T13:17:46;21.40;;;11.70;;
75810;SDS011;64449;50.016;19.954;2023-12-28T13:20:12;20.70;;;11.70;;
75810;SDS011;64449;50.016;19.954;2023-12-28T13:22:37;20.40;;;10.70;;
75810;SDS011;64449;50.016;19.954;2023-12-28T13:25:03;27.60;;;12.10;;
75810;SDS011;64449;50.016;19.954;2023-12-28T13:27:29;18.10;;;10.60;;
75810;SDS011;64449;50.016;19.954;2023-12-28T13:29:55;22.40;;;12.00;;
75810;SDS011;64449;50.016;19.954;2023-12-28T13:32:21;21.20;;;12.60;;
75810;SDS011;64449;50.016;19.954;2023-12-28T13:34:48;22.40;;;11.80;;
75810;SDS011;64449;50.016;19.954;2023-12-28T13:37:13;18.00;;;11.10;;
75810;SDS011;64449;50.016;19.954;2023-12-28T13:39:39;16.40;;;11.20;;
75810;SDS011;64449;50.016;19.954;2023-12-28T13:42:07;21.00;;;12.10;;
75810;SDS011;64449;50.016;19.954;2023-12-28T13:44:33;20.10;;;11.30;;
75810;SDS011;64449;50.016;19.954;2023-12-28T13:47:00;17.70;;;11.30;;
75810;SDS011;64449;50.016;19.954;2023-12-28T13:49:26;18.90;;;11.30;;
75810;SDS011;64449;50.016;19.954;2023-12-28T13:51:52;20.60;;;10.70;;
75810;SDS011;64449;50.016;19.954;2023-12-28T13:54:17;18.80;;;11.20;;
75810;SDS011;64449;50.016;19.954;2023-12-28T13:56:44;20.00;;;12.00;;
75810;SDS011;64449;50.016;19.954;2023-12-28T13:59:10;20.90;;;11.80;;
75810;SDS011;64449;50.016;19.954;2023-12-28T14:01:36;19.30;;;11.40;;
75810;SDS011;64449;50.016;19.954;2023-12-28T14:04:03;17.20;;;11.30;;
75810;SDS011;64449;50.016;19.954;2023-12-28T14:06:29;18.90;;;11.10;;
75810;SDS011;64449;50.016;19.954;2023-12-28T14:08:54;20.30;;;11.90;;
75810;SDS011;64449;50.016;19.954;2023-12-28T14:11:19;19.10;;;10.00;;
75810;SDS011;64449;50.016;19.954;2023-12-28T14:13:45;21.90;;;12.50;;
75810;SDS011;64449;50.016;19.954;2023-12-28T14:16:10;20.30;;;10.60;;
75810;SDS011;64449;50.016;19.954;2023-12-28T14:18:36;18.30;;;11.30;;
75810;SDS011;64449;50.016;19.954;2023-12-28T14:21:01;21.30;;;11.40;;
75810;SDS011;64449;50.016;19.954;2023-12-28T14:23:28;21.30;;;11.00;;
75810;SDS011;64449;50.016;19.954;2023-12-28T14:25:54;16.00;;;10.70;;
75810;SDS011;64449;50.016;19.954;2023-12-28T14:28:20;16.50;;;10.20;;
75810;SDS011;64449;50.016;19.954;2023-12-28T14:30:46;20.70;;;10.90;;
75810;SDS011;64449;50.016;19.954;2023-12-28T14:33:12;18.50;;;10.50;;
75810;SDS011;64449;50.016;19.954;2023-12-28T14:35:38;19.70;;;11.70;;
75810;SDS011;64449;50.016;19.954;2023-12-28T14:38:07;17.10;;;10.10;;
75810;SDS011;64449;50.016;19.954;2023-12-28T14:40:33;19.20;;;10.40;;
75810;SDS011;64449;50.016;19.954;2023-12-28T14:42:58;16.40;;;10.10;;
75810;SDS011;64449;50.016;19.954;2023-12-28T14:45:24;20.00;;;9.90;;
75810;SDS011;64449;50.016;19.954;2023-12-28T14:47:49;20.00;;;11.50;;
75810;SDS011;64449;50.016;19.954;2023-12-28T14:50:14;17.50;;;10.80;;
75810;SDS011;64449;50.016;19.954;2023-12-28T14:52:40;20.50;;;11.30;;
75810;SDS011;64449;50.016;19.954;2023-12-28T14:55:08;20.10;;;10.10;;
75810;SDS011;64449;50.016;19.954;2023-12-28T14:57:33;21.00;;;11.00;;
75810;SDS011;64449;50.016;19.954;2023-12-28T14:59:59;22.60;;;10.10;;
75810;SDS011;64449;50.016;19.954;2023-12-28T15:02:25;20.90;;;10.60;;
75810;SDS011;64449;50.016;19.954;2023-12-28T15:04:50;20.00;;;10.30;;